createdAt,value
2022-12-23T00:00:10.912Z,32.17
2022-12-23T00:03:12.815Z,32.40
2022-12-23T00:06:16.455Z,30.92
2022-12-23T00:09:18.100Z,32.22
2022-12-23T00:12:38.371Z,34.92
2022-12-23T00:15:39.993Z,35.75
2022-12-23T00:18:42.499Z,38.38
2022-12-23T00:21:44.181Z,37.95
2022-12-23T00:24:45.827Z,37.85
2022-12-23T00:28:01.427Z,39.78
2022-12-23T00:31:05.955Z,41.30
2022-12-23T00:34:07.655Z,44.53
2022-12-23T00:37:09.307Z,43.58
2022-12-23T00:40:33.142Z,42.55
2022-12-23T00:43:34.774Z,42.58
2022-12-23T00:46:36.729Z,43.55
2022-12-23T00:49:44.256Z,42.50
2022-12-23T00:55:47.983Z,41.80
2022-12-23T00:58:49.734Z,43.17
2022-12-23T01:02:10.207Z,44.33
2022-12-23T01:05:30.256Z,42.88
2022-12-23T01:08:31.887Z,45.70
2022-12-23T01:11:34.226Z,46.00
2022-12-23T01:14:35.946Z,44.53
2022-12-23T01:17:37.606Z,44.90
2022-12-23T01:20:40.258Z,45.55
2022-12-23T01:23:41.906Z,44.47
2022-12-23T01:26:43.657Z,45.12
2022-12-23T01:29:46.059Z,44.08
2022-12-23T01:32:47.803Z,45.33
2022-12-23T01:35:49.776Z,44.58
2022-12-23T01:38:51.691Z,45.78
2022-12-23T01:42:11.800Z,47.88
2022-12-23T01:45:24.863Z,48.17
2022-12-23T01:48:30.464Z,44.15
2022-12-23T01:51:32.358Z,42.55
2022-12-23T01:54:36.228Z,40.90
2022-12-23T01:57:41.741Z,40.60
2022-12-23T02:01:02.564Z,42.13
2022-12-23T02:04:08.063Z,40.25
2022-12-23T02:07:29.723Z,38.35
2022-12-23T02:10:44.661Z,37.22
2022-12-23T02:14:19.962Z,37.50
2022-12-23T02:17:28.190Z,39.00
2022-12-23T02:20:32.798Z,38.83
2022-12-23T02:23:43.761Z,39.97
2022-12-23T02:27:15.253Z,39.67
2022-12-23T02:30:48.870Z,41.35
2022-12-23T02:34:12.399Z,39.28
2022-12-23T02:37:20.169Z,38.65
2022-12-23T02:40:24.721Z,40.17
2022-12-23T02:43:51.514Z,47.45
2022-12-23T02:47:00.914Z,44.63
2022-12-23T02:50:09.121Z,44.40
2022-12-23T02:53:25.888Z,41.78
2022-12-23T02:56:30.567Z,44.78
2022-12-23T02:59:52.214Z,44.88
2022-12-23T03:02:53.974Z,43.78
2022-12-23T03:05:56.252Z,45.42
2022-12-23T03:09:00.396Z,46.37
2022-12-23T03:12:19.737Z,50.45
2022-12-23T03:15:41.493Z,49.42
2022-12-23T03:19:06.304Z,48.63
2022-12-23T03:22:13.990Z,50.30
2022-12-23T03:25:26.779Z,49.33
2022-12-23T03:28:34.640Z,46.72
2022-12-23T03:31:38.017Z,48.20
2022-12-23T03:34:44.470Z,53.75
2022-12-23T03:37:50.562Z,51.88
2022-12-23T03:41:00.893Z,50.67
2022-12-23T03:45:03.545Z,50.50
2022-12-23T03:48:31.838Z,48.78
2022-12-23T03:54:52.137Z,49.30
2022-12-23T03:58:38.986Z,51.75
2022-12-23T04:02:17.880Z,51.30
2022-12-23T04:08:30.215Z,55.60
2022-12-23T04:11:33.361Z,69.53
2022-12-23T04:14:36.752Z,61.15
2022-12-23T04:17:38.569Z,56.22
2022-12-23T04:20:40.283Z,56.40
2022-12-23T04:23:41.991Z,57.88
2022-12-23T04:26:43.675Z,55.80
2022-12-23T04:29:45.456Z,53.97
2022-12-23T04:32:47.141Z,52.33
2022-12-23T04:35:48.855Z,53.30
2022-12-23T04:38:50.526Z,51.67
2022-12-23T04:41:52.171Z,63.40
2022-12-23T04:44:53.925Z,66.12
2022-12-23T04:47:55.711Z,72.20
2022-12-23T04:50:57.352Z,69.07
2022-12-23T04:53:59.020Z,63.47
2022-12-23T04:57:00.860Z,64.68
2022-12-23T05:00:04.104Z,57.67
2022-12-23T05:03:06.286Z,62.53
2022-12-23T05:06:08.558Z,62.85
2022-12-23T05:09:10.308Z,60.72
2022-12-23T05:12:12.685Z,64.57
2022-12-23T05:15:14.334Z,61.97
2022-12-23T05:18:16.314Z,58.13
2022-12-23T05:21:18.127Z,57.38
2022-12-23T05:24:19.801Z,65.12
2022-12-23T05:27:21.483Z,52.05
2022-12-23T05:30:23.143Z,57.78
2022-12-23T05:33:24.840Z,51.92
2022-12-23T05:36:26.590Z,51.37
2022-12-23T05:39:28.235Z,49.17
2022-12-23T05:42:29.908Z,48.75
2022-12-23T05:45:31.654Z,46.05
2022-12-23T05:48:33.482Z,48.70
2022-12-23T05:51:35.146Z,64.03
2022-12-23T05:54:36.821Z,50.60
2022-12-23T05:57:38.600Z,47.20
2022-12-23T06:00:40.265Z,48.28
2022-12-23T06:03:42.030Z,48.38
2022-12-23T06:06:44.206Z,47.53
2022-12-23T06:09:45.912Z,46.65
2022-12-23T06:12:47.713Z,50.95
2022-12-23T06:15:49.471Z,48.40
2022-12-23T06:18:55.655Z,46.25
2022-12-23T06:21:57.296Z,47.75
2022-12-23T06:24:59.003Z,46.33
2022-12-23T06:28:00.693Z,45.75
2022-12-23T06:31:02.429Z,45.97
2022-12-23T06:34:04.126Z,47.90
2022-12-23T06:37:05.815Z,46.55
2022-12-23T06:40:08.069Z,46.03
2022-12-23T06:43:11.407Z,43.08
2022-12-23T06:46:14.279Z,43.15
2022-12-23T06:49:15.973Z,39.78
2022-12-23T06:52:17.736Z,42.83
2022-12-23T06:55:19.408Z,42.25
2022-12-23T06:58:21.030Z,45.47
2022-12-23T07:01:22.748Z,45.08
2022-12-23T07:04:24.453Z,44.08
2022-12-23T07:07:26.140Z,44.67
2022-12-23T07:10:27.814Z,55.80
2022-12-23T07:13:30.383Z,47.95
2022-12-23T07:16:32.170Z,62.30
2022-12-23T07:19:34.312Z,46.55
2022-12-23T07:22:35.943Z,42.92
2022-12-23T07:25:38.146Z,42.47
2022-12-23T07:28:40.009Z,38.80
2022-12-23T07:31:41.760Z,47.17
2022-12-23T07:34:43.581Z,41.88
2022-12-23T07:37:45.595Z,32.83
2022-12-23T07:40:49.168Z,35.10
2022-12-23T07:43:50.841Z,32.28
2022-12-23T07:46:52.474Z,33.83
2022-12-23T07:49:54.210Z,38.97
2022-12-23T07:52:56.183Z,65.40
2022-12-23T07:55:57.908Z,51.15
2022-12-23T07:58:59.567Z,55.90
2022-12-23T08:02:01.414Z,45.42
2022-12-23T08:05:03.253Z,43.17
2022-12-23T08:08:05.133Z,39.95
2022-12-23T08:11:09.202Z,43.95
2022-12-23T08:14:10.883Z,48.75
2022-12-23T08:17:12.611Z,33.58
2022-12-23T08:20:14.357Z,33.45
2022-12-23T08:23:19.997Z,44.67
2022-12-23T08:26:26.343Z,34.92
2022-12-23T08:29:31.286Z,36.47
2022-12-23T08:32:37.516Z,39.15
2022-12-23T08:35:39.274Z,41.22
2022-12-23T08:38:41.432Z,39.42
2022-12-23T08:41:45.814Z,35.15
2022-12-23T08:44:47.478Z,34.40
2022-12-23T08:47:49.136Z,36.40
2022-12-23T08:50:50.773Z,37.13
2022-12-23T08:54:00.473Z,40.53
2022-12-23T08:57:02.426Z,37.47
2022-12-23T09:00:04.537Z,35.80
2022-12-23T09:03:06.927Z,39.58
2022-12-23T09:06:16.712Z,50.15
2022-12-23T09:09:18.382Z,46.37
2022-12-23T09:12:20.057Z,73.97
2022-12-23T09:15:21.799Z,45.90
2022-12-23T09:18:23.441Z,50.72
2022-12-23T09:21:25.597Z,51.65
2022-12-23T09:24:27.262Z,48.03
2022-12-23T09:27:28.935Z,36.67
2022-12-23T09:30:30.602Z,33.90
2022-12-23T09:33:32.242Z,44.00
2022-12-23T09:36:34.068Z,46.78
2022-12-23T09:39:35.701Z,36.50
2022-12-23T09:43:16.085Z,35.20
2022-12-23T09:46:22.959Z,34.00
2022-12-23T09:49:24.694Z,35.30
2022-12-23T09:52:50.134Z,36.60
2022-12-23T09:56:00.410Z,36.28
2022-12-23T09:59:24.452Z,38.42
2022-12-23T10:02:48.341Z,33.20
2022-12-23T10:06:08.714Z,41.15
2022-12-23T10:09:13.598Z,37.45
2022-12-23T10:12:40.256Z,36.78
2022-12-23T10:15:47.380Z,39.55
2022-12-23T10:19:07.668Z,33.60
2022-12-23T10:22:23.913Z,39.17
2022-12-23T10:25:34.812Z,42.33
2022-12-23T10:28:36.477Z,39.85
2022-12-23T10:31:59.506Z,44.05
2022-12-23T10:35:35.576Z,44.30
2022-12-23T10:39:06.098Z,39.35
2022-12-23T10:42:42.383Z,39.97
2022-12-23T10:46:11.901Z,39.00
2022-12-23T10:49:38.359Z,37.60
2022-12-23T10:52:42.988Z,36.90
2022-12-23T10:55:45.461Z,35.17
2022-12-23T10:58:52.946Z,39.63
2022-12-23T11:02:02.419Z,36.33
2022-12-23T11:05:12.365Z,36.65
2022-12-23T11:08:14.162Z,35.45
2022-12-23T11:11:15.823Z,33.30
2022-12-23T11:14:32.807Z,36.05
2022-12-23T11:17:35.175Z,35.45
2022-12-23T11:20:37.519Z,34.33
2022-12-23T11:23:39.157Z,34.17
2022-12-23T11:26:41.292Z,33.92
2022-12-23T11:29:51.580Z,55.42
2022-12-23T11:32:54.152Z,36.33
2022-12-23T11:36:14.592Z,33.33
2022-12-23T11:39:20.648Z,31.95
2022-12-23T11:42:29.119Z,32.90
2022-12-23T11:45:36.042Z,31.17
2022-12-23T11:48:38.592Z,31.73
2022-12-23T11:51:40.476Z,30.50
2022-12-23T11:54:54.356Z,36.05
2022-12-23T11:57:56.753Z,32.10
2022-12-23T12:01:00.881Z,30.60
2022-12-23T12:04:17.877Z,30.67
2022-12-23T12:07:19.703Z,30.62
2022-12-23T12:10:26.258Z,33.00
2022-12-23T12:13:44.502Z,35.03
2022-12-23T12:16:55.295Z,33.63
2022-12-23T12:20:10.628Z,31.25
2022-12-23T12:23:21.168Z,29.00
2022-12-23T12:26:29.708Z,27.98
2022-12-23T12:29:34.253Z,28.08
2022-12-23T12:33:24.012Z,29.12
2022-12-23T12:36:52.771Z,31.58
2022-12-23T12:40:01.038Z,27.52
2022-12-23T12:43:14.456Z,42.50
2022-12-23T12:46:34.335Z,99.00
2022-12-23T12:49:43.366Z,47.47
2022-12-23T12:52:45.063Z,59.67
2022-12-23T12:55:57.231Z,58.38
2022-12-23T12:58:59.126Z,48.05
2022-12-23T13:02:00.924Z,38.03
2022-12-23T13:05:33.554Z,49.40
2022-12-23T13:08:51.391Z,49.50
2022-12-23T13:12:15.712Z,34.58
2022-12-23T13:15:20.143Z,36.38
2022-12-23T13:18:47.792Z,38.25
2022-12-23T13:22:09.011Z,36.90
2022-12-23T13:25:24.352Z,37.38
2022-12-23T13:28:33.128Z,36.08
2022-12-23T13:31:58.184Z,40.22
2022-12-23T13:35:18.970Z,67.85
2022-12-23T13:38:39.036Z,37.28
2022-12-23T13:41:53.545Z,38.70
2022-12-23T13:44:56.632Z,43.40
2022-12-23T13:48:13.223Z,38.03
2022-12-23T13:51:26.503Z,38.08
2022-12-23T13:54:37.113Z,45.28
2022-12-23T13:57:48.391Z,42.03
2022-12-23T14:00:58.831Z,40.35
2022-12-23T14:04:37.009Z,48.58
2022-12-23T14:07:38.735Z,44.97
2022-12-23T14:10:57.415Z,41.63
2022-12-23T14:14:01.617Z,43.40
2022-12-23T14:17:26.355Z,41.47
2022-12-23T14:20:36.688Z,42.72
2022-12-23T14:24:24.889Z,41.45
2022-12-23T14:27:35.349Z,42.03
2022-12-23T14:30:41.257Z,41.00
2022-12-23T14:33:48.883Z,42.10
2022-12-23T14:37:17.041Z,40.72
2022-12-23T14:40:37.046Z,42.80
2022-12-23T14:43:44.606Z,41.90
2022-12-23T14:49:48.061Z,49.15
2022-12-23T14:52:59.324Z,44.25
2022-12-23T14:56:10.519Z,48.50
2022-12-23T14:59:33.139Z,81.05
2022-12-23T15:02:38.933Z,80.82
2022-12-23T15:05:40.881Z,56.90
2022-12-23T15:08:45.968Z,47.75
2022-12-23T15:11:48.202Z,65.45
2022-12-23T15:14:57.656Z,50.50
2022-12-23T15:18:20.464Z,42.45
2022-12-23T15:21:31.245Z,44.85
2022-12-23T15:24:32.913Z,59.00
2022-12-23T15:27:36.236Z,57.42
2022-12-23T15:30:48.295Z,43.13
2022-12-23T15:34:08.882Z,51.88
2022-12-23T15:37:15.823Z,44.45
2022-12-23T15:40:28.214Z,39.95
2022-12-23T15:43:30.452Z,36.38
2022-12-23T15:46:32.124Z,39.85
2022-12-23T15:49:33.834Z,35.78
2022-12-23T15:52:35.497Z,38.60
2022-12-23T15:55:41.341Z,40.38
2022-12-23T15:58:43.512Z,50.78
2022-12-23T16:01:45.318Z,51.50
2022-12-23T16:05:00.388Z,49.22
2022-12-23T16:08:15.992Z,46.92
2022-12-23T16:11:20.229Z,46.40
2022-12-23T16:14:31.056Z,44.08
2022-12-23T16:17:36.677Z,47.05
2022-12-23T16:20:47.685Z,50.80
2022-12-23T16:23:52.275Z,45.95
2022-12-23T16:26:56.341Z,50.45
2022-12-23T16:30:01.738Z,50.92
2022-12-23T16:33:23.505Z,59.72
2022-12-23T16:36:25.150Z,73.05
2022-12-23T16:39:26.866Z,65.65
2022-12-23T16:42:28.523Z,61.60
2022-12-23T16:45:34.446Z,52.20
2022-12-23T16:48:39.578Z,53.20
2022-12-23T16:51:41.359Z,51.00
2022-12-23T16:54:43.384Z,56.72
2022-12-23T16:57:45.890Z,54.60
2022-12-23T17:00:47.870Z,52.97
2022-12-23T17:03:49.995Z,50.28
2022-12-23T17:06:51.641Z,50.12
2022-12-23T17:09:54.310Z,49.42
2022-12-23T17:12:55.980Z,50.90
2022-12-23T17:15:57.682Z,48.30
2022-12-23T17:19:00.128Z,51.10
2022-12-23T17:22:03.406Z,50.00
2022-12-23T17:25:06.112Z,49.15
2022-12-23T17:28:10.881Z,47.33
2022-12-23T17:31:16.190Z,49.08
2022-12-23T17:34:24.390Z,51.35
2022-12-23T17:37:26.042Z,51.22
2022-12-23T17:40:27.737Z,45.72
2022-12-23T17:43:29.465Z,46.88
2022-12-23T17:46:31.494Z,45.10
2022-12-23T17:49:33.197Z,44.78
2022-12-23T17:52:34.863Z,47.38
2022-12-23T17:55:36.530Z,45.58
2022-12-23T17:58:38.829Z,47.90
2022-12-23T18:01:40.487Z,52.35
2022-12-23T18:04:43.245Z,51.97
2022-12-23T18:07:44.925Z,56.20
2022-12-23T18:10:46.563Z,56.85
2022-12-23T18:13:50.099Z,52.60
2022-12-23T18:16:51.787Z,57.85
2022-12-23T18:19:53.562Z,72.57
2022-12-23T18:22:55.505Z,52.88
2022-12-23T18:25:58.331Z,44.90
2022-12-23T18:28:59.961Z,46.67
2022-12-23T18:32:01.678Z,47.65
2022-12-23T18:35:03.817Z,46.47
2022-12-23T18:38:05.967Z,41.45
2022-12-23T18:41:12.122Z,43.25
2022-12-23T18:44:21.387Z,47.67
2022-12-23T18:47:23.180Z,43.20
2022-12-23T18:50:25.870Z,46.25
2022-12-23T18:53:27.569Z,43.63
2022-12-23T18:56:29.272Z,45.08
2022-12-23T18:59:33.034Z,50.40
2022-12-23T19:02:34.774Z,46.78
2022-12-23T19:05:37.882Z,52.15
2022-12-23T19:08:41.376Z,47.65
2022-12-23T19:11:43.658Z,46.92
2022-12-23T19:14:45.321Z,47.20
2022-12-23T19:17:48.143Z,47.70
2022-12-23T19:20:50.070Z,52.60
2022-12-23T19:23:51.748Z,62.15
2022-12-23T19:26:53.432Z,66.47
2022-12-23T19:29:55.230Z,62.97
2022-12-23T19:32:56.897Z,73.35
2022-12-23T19:35:58.653Z,74.07
2022-12-23T19:39:00.373Z,62.95
2022-12-23T19:42:02.065Z,62.42
2022-12-23T19:45:03.937Z,58.42
2022-12-23T19:48:06.027Z,57.85
2022-12-23T19:51:10.526Z,58.95
2022-12-23T19:54:12.277Z,57.33
2022-12-23T19:57:14.010Z,53.45
2022-12-23T20:00:16.145Z,54.55
2022-12-23T20:03:17.885Z,49.50
2022-12-23T20:06:21.336Z,48.10
2022-12-23T20:09:22.992Z,47.28
2022-12-23T20:12:26.732Z,43.83
2022-12-23T20:15:28.418Z,44.20
2022-12-23T20:18:30.499Z,42.00
2022-12-23T20:21:34.108Z,44.15
2022-12-23T20:24:36.298Z,39.80
2022-12-23T20:27:38.825Z,38.60
2022-12-23T20:30:42.758Z,39.67
2022-12-23T20:33:45.200Z,38.67
2022-12-23T20:36:47.133Z,37.55
2022-12-23T20:39:48.977Z,37.53
2022-12-23T20:42:50.720Z,34.70
2022-12-23T20:45:52.437Z,36.42
2022-12-23T20:48:54.392Z,40.38
2022-12-23T20:51:56.033Z,36.45
2022-12-23T20:54:57.798Z,36.00
2022-12-23T20:58:22.544Z,35.47
2022-12-23T21:01:31.746Z,37.80
2022-12-23T21:04:33.477Z,35.00
2022-12-23T21:07:35.138Z,36.17
2022-12-23T21:10:37.071Z,36.50
2022-12-23T21:13:40.504Z,38.45
2022-12-23T21:16:43.047Z,39.90
2022-12-23T21:19:44.848Z,40.40
2022-12-23T21:22:46.551Z,42.10
2022-12-23T21:25:48.208Z,40.97
2022-12-23T21:28:51.612Z,41.97
2022-12-23T21:31:53.465Z,42.78
2022-12-23T21:34:55.186Z,39.15
2022-12-23T21:37:56.833Z,47.17
2022-12-23T21:41:04.037Z,40.72
2022-12-23T21:44:06.001Z,43.42
2022-12-23T21:47:07.733Z,42.35
2022-12-23T21:50:09.889Z,41.67
2022-12-23T21:53:11.528Z,41.03
2022-12-23T21:56:15.870Z,43.03
2022-12-23T21:59:17.501Z,46.20
2022-12-23T22:02:19.258Z,44.85
2022-12-23T22:05:21.775Z,40.75
2022-12-23T22:08:23.376Z,37.60
2022-12-23T22:11:28.159Z,38.00
2022-12-23T22:14:29.864Z,41.20
2022-12-23T22:17:31.497Z,39.08
2022-12-23T22:20:33.161Z,40.12
2022-12-23T22:23:35.588Z,41.88
2022-12-23T22:26:37.452Z,59.78
2022-12-23T22:29:39.275Z,50.22
2022-12-23T22:32:42.755Z,42.20
2022-12-23T22:35:54.032Z,45.17
2022-12-23T22:38:58.169Z,42.08
2022-12-23T22:41:59.850Z,43.20
2022-12-23T22:45:01.676Z,42.53
2022-12-23T22:48:03.652Z,43.47
2022-12-23T22:51:14.513Z,41.88
2022-12-23T22:54:16.194Z,51.13
2022-12-23T22:57:17.830Z,46.30
2022-12-23T23:00:19.578Z,41.50
2022-12-23T23:03:21.574Z,46.92
2022-12-23T23:06:25.801Z,44.83
2022-12-23T23:09:27.534Z,44.75
2022-12-23T23:12:29.164Z,45.95
2022-12-23T23:15:30.829Z,43.33
2022-12-23T23:18:32.639Z,45.47
2022-12-23T23:21:34.395Z,50.40
2022-12-23T23:24:36.168Z,42.53
2022-12-23T23:27:37.848Z,42.33
2022-12-23T23:30:40.082Z,43.42
2022-12-23T23:33:41.718Z,51.20
2022-12-23T23:36:43.510Z,49.55
2022-12-23T23:39:45.282Z,47.45
2022-12-23T23:42:46.926Z,44.47
2022-12-23T23:45:49.130Z,43.28
2022-12-23T23:48:50.789Z,41.53
2022-12-23T23:51:52.520Z,44.75
2022-12-23T23:54:54.221Z,46.28
2022-12-23T23:57:55.922Z,46.55
